Miami, FL

06:11 AM EDT em 01 de Novembro de 2014 (GMT -0400)
West Little River | Change Station
CLOSE
Current Station
Estação Meteorológica Particular
Location: Miami, FL
Altitude: 11 ft
Estações Meteorológicas Próximas

Elev 11 ft 25.85 °N, 80.21 °W | Updated 13 seconds ago

Céu Limpo
Céu Limpo
63.7 °F
Aparente 63.7 °F
N
0.2
Vento Variável Vento de OSO
Gusts 2.5 mph

Hoje
Máxima -- | Mínima -- °F
--% Possibilidade de Precip.
Ontem
Máxima -- | Mínima -- °F
Precip. -- pol
7:29 AM 6:39 PM
Lua crescente, 65% visible
Pressão 29.94 pol
Visibilidade 10.0 milhas
Nuvens Céu Limpo
Ponto de Orvalho 56 °F
Humidade 77%
Chuva 0.00 pol
Altura de Neve Não disponível
UV 0.0 em vez de 12
Pólen 3.10 em vez de 12
Qualidade do Ar Não disponível
Flu Activity Não disponível
METAR KMIA 010953Z 00000KT 10SM CLR 18/12 A2994 RMK AO2 SLP139 T01780122

More Conditions Fewer Conditions

Pressão 29.94 pol
Visibilidade 10.0 milhas
Nuvens Céu Limpo
Ponto de Orvalho 56 °F
Humidade 77%
Chuva 0.00 pol
Altura de Neve Não disponível
UV 0.0 em vez de 12
Pólen 3.10 em vez de 12
Qualidade do Ar Não disponível
Flu Activity Não disponível
METAR KMIA 010953Z 00000KT 10SM CLR 18/12 A2994 RMK AO2 SLP139 T01780122

More Conditions Fewer Conditions

10-Day Weather Forecast

Almanac

Astronomia

Nov. 01, 2014 Nascer Pôr
Hora atual
Crepúsculo civil
Crepúsculo náutico
Crepúsculo astronómico
Lua
Comprimento da luz visível
Duração do Dia
Tomorrow will be .
, % of the Moon is Illuminated

Extremos de Hoje

situação na parte mais alta situação na parte mais baixa

Community

WunderPhotos

Upload Photos

1,766,874 fotografias inseridas!

WunderBlogs® & News

Nearby

Qualidade do Ar

  Qualidade do Ar Índice da Q.A. Poluente
Not available.

Altura da Neve

Estação altura Altitude

Actividade Sísmisca

Cidade Distância Mag. Hora & Data
Mínima magnitude apresentada é 2.5.

Temperaturas das Águas Costeiras

Local Temperatura

Estações Meteorológicas Próximas